createdAt,value
2019-01-28T00:00:33.107Z,4.50
2019-01-28T00:03:03.194Z,4.60
2019-01-28T00:05:31.692Z,4.70
2019-01-28T00:08:00.097Z,4.60
2019-01-28T00:10:28.522Z,4.70
2019-01-28T00:12:56.927Z,4.80
2019-01-28T00:15:25.368Z,4.90
2019-01-28T00:17:53.791Z,5.00
2019-01-28T00:20:22.221Z,4.90
2019-01-28T00:22:50.624Z,4.90
2019-01-28T00:25:19.040Z,4.90
2019-01-28T00:27:47.452Z,4.80
2019-01-28T00:30:16.232Z,4.80
2019-01-28T00:32:44.628Z,4.90
2019-01-28T00:35:13.357Z,4.90
2019-01-28T00:37:41.762Z,4.90
2019-01-28T00:40:11.664Z,4.90
2019-01-28T00:42:40.064Z,4.90
2019-01-28T00:45:12.930Z,4.70
2019-01-28T00:47:41.325Z,4.70
2019-01-28T00:50:11.790Z,4.60
2019-01-28T00:52:40.188Z,4.40
2019-01-28T00:55:11.414Z,4.40
2019-01-28T00:57:39.984Z,4.50
2019-01-28T01:00:22.940Z,4.40
2019-01-28T01:02:51.780Z,4.30
2019-01-28T01:05:20.196Z,4.40
2019-01-28T01:07:49.481Z,4.40
2019-01-28T01:10:17.961Z,4.30
2019-01-28T01:12:46.362Z,4.40
2019-01-28T01:15:16.515Z,4.50
2019-01-28T01:17:44.946Z,4.50
2019-01-28T01:20:15.990Z,4.40
2019-01-28T01:22:44.649Z,4.30
2019-01-28T01:25:14.322Z,4.30
2019-01-28T01:27:42.961Z,4.20
2019-01-28T01:30:14.413Z,4.20
2019-01-28T01:32:42.969Z,4.20
2019-01-28T01:35:11.849Z,4.10
2019-01-28T01:37:40.565Z,4.10
2019-01-28T01:40:12.325Z,4.10
2019-01-28T01:42:40.730Z,4.10
2019-01-28T01:45:12.391Z,4.10
2019-01-28T01:47:40.824Z,4.00
2019-01-28T01:50:10.368Z,4.00
2019-01-28T01:52:38.788Z,4.10
2019-01-28T01:55:10.493Z,4.10
2019-01-28T01:57:38.916Z,4.20
2019-01-28T02:00:15.195Z,4.30
2019-01-28T02:02:43.780Z,4.30
2019-01-28T02:05:12.642Z,4.20
2019-01-28T02:07:41.180Z,4.10
2019-01-28T02:10:12.135Z,4.10
2019-01-28T02:12:40.550Z,4.20
2019-01-28T02:15:12.718Z,4.20
2019-01-28T02:17:41.135Z,4.20
2019-01-28T02:20:11.184Z,4.10
2019-01-28T02:22:39.604Z,4.10
2019-01-28T02:25:10.774Z,4.10
2019-01-28T02:27:39.203Z,4.10
2019-01-28T02:30:10.694Z,4.10
2019-01-28T02:32:39.106Z,4.10
2019-01-28T02:35:08.927Z,4.00
2019-01-28T02:37:37.519Z,4.10
2019-01-28T02:40:14.545Z,4.10
2019-01-28T02:42:42.956Z,4.10
2019-01-28T02:45:13.403Z,4.20
2019-01-28T02:47:42.171Z,4.20
2019-01-28T02:50:15.951Z,4.20
2019-01-28T02:52:44.508Z,4.20
2019-01-28T02:55:13.653Z,4.30
2019-01-28T02:57:42.064Z,4.20
2019-01-28T03:00:16.096Z,4.10
2019-01-28T03:02:44.777Z,4.10
2019-01-28T03:05:14.520Z,4.20
2019-01-28T03:07:42.953Z,4.10
2019-01-28T03:10:17.541Z,4.20
2019-01-28T03:12:46.222Z,4.20
2019-01-28T03:15:16.125Z,4.30
2019-01-28T03:17:45.082Z,4.40
2019-01-28T03:20:15.852Z,4.40
2019-01-28T03:22:44.477Z,4.30
2019-01-28T03:25:15.394Z,4.30
2019-01-28T03:27:43.835Z,4.50
2019-01-28T03:30:20.166Z,4.50
2019-01-28T03:32:49.278Z,4.50
2019-01-28T03:35:18.521Z,4.30
2019-01-28T03:37:47.106Z,4.30
2019-01-28T03:40:17.930Z,4.40
2019-01-28T03:42:46.443Z,4.50
2019-01-28T03:45:17.452Z,4.50
2019-01-28T03:47:45.841Z,4.50
2019-01-28T03:50:16.414Z,4.60
2019-01-28T03:52:45.397Z,4.70
2019-01-28T03:55:14.095Z,4.70
2019-01-28T03:57:43.151Z,4.70
2019-01-28T04:00:20.406Z,4.70
2019-01-28T04:02:48.821Z,4.70
2019-01-28T04:05:17.499Z,4.70
2019-01-28T04:07:45.905Z,4.70
2019-01-28T04:10:17.234Z,4.70
2019-01-28T04:12:45.634Z,4.60
2019-01-28T04:15:16.753Z,4.60
2019-01-28T04:17:45.180Z,4.50
2019-01-28T04:20:15.921Z,4.50
2019-01-28T04:22:44.719Z,4.60
2019-01-28T04:25:13.763Z,4.60
2019-01-28T04:27:42.212Z,4.60
2019-01-28T04:30:16.220Z,4.70
2019-01-28T04:32:44.626Z,4.70
2019-01-28T04:35:13.152Z,4.70
2019-01-28T04:37:41.586Z,4.70
2019-01-28T04:40:15.284Z,4.70
2019-01-28T04:42:43.683Z,4.70
2019-01-28T04:45:17.618Z,4.80
2019-01-28T04:47:46.636Z,4.80
2019-01-28T04:50:20.325Z,4.80
2019-01-28T04:52:49.465Z,4.80
2019-01-28T04:55:18.388Z,4.80
2019-01-28T04:57:48.627Z,4.80
2019-01-28T05:00:19.795Z,4.80
2019-01-28T05:02:48.269Z,4.80
2019-01-28T05:05:16.963Z,4.80
2019-01-28T05:07:45.361Z,4.70
2019-01-28T05:10:16.103Z,4.70
2019-01-28T05:12:45.059Z,4.70
2019-01-28T05:15:15.610Z,4.70
2019-01-28T05:17:44.385Z,4.70
2019-01-28T05:20:15.414Z,4.60
2019-01-28T05:22:43.823Z,4.70
2019-01-28T05:25:14.391Z,4.60
2019-01-28T05:27:43.024Z,4.60
2019-01-28T05:30:17.363Z,4.60
2019-01-28T05:32:45.801Z,4.70
2019-01-28T05:35:16.757Z,4.60
2019-01-28T05:37:45.701Z,4.60
2019-01-28T05:40:19.414Z,4.60
2019-01-28T05:42:47.831Z,4.60
2019-01-28T05:45:18.312Z,4.40
2019-01-28T05:47:46.744Z,4.40
2019-01-28T05:50:16.299Z,4.50
2019-01-28T05:52:44.981Z,4.50
2019-01-28T05:55:15.156Z,4.60
2019-01-28T05:57:43.572Z,4.50
2019-01-28T06:00:21.031Z,4.50
2019-01-28T06:02:49.433Z,4.50
2019-01-28T06:05:17.866Z,4.50
2019-01-28T06:07:46.344Z,4.50
2019-01-28T06:10:16.292Z,4.40
2019-01-28T06:12:44.735Z,4.40
2019-01-28T06:15:16.126Z,4.40
2019-01-28T06:17:44.977Z,4.40
2019-01-28T06:20:16.728Z,4.60
2019-01-28T06:22:45.155Z,4.60
2019-01-28T06:25:13.821Z,4.70
2019-01-28T06:27:42.505Z,4.90
2019-01-28T06:30:14.243Z,4.80
2019-01-28T06:32:42.660Z,4.80
2019-01-28T06:35:11.354Z,4.80
2019-01-28T06:37:39.788Z,4.90
2019-01-28T06:40:14.122Z,4.90
2019-01-28T06:42:42.533Z,4.90
2019-01-28T06:45:13.751Z,5.00
2019-01-28T06:47:46.707Z,4.90
2019-01-28T06:50:18.126Z,5.00
2019-01-28T06:52:46.902Z,4.90
2019-01-28T06:55:15.570Z,5.00
2019-01-28T06:57:43.989Z,5.10
2019-01-28T07:00:15.862Z,5.70
2019-01-28T07:02:44.441Z,5.40
2019-01-28T07:05:13.366Z,5.50
2019-01-28T07:07:41.816Z,5.50
2019-01-28T07:10:11.362Z,5.50
2019-01-28T07:12:39.798Z,5.30
2019-01-28T07:15:10.803Z,5.00
2019-01-28T07:17:39.230Z,4.90
2019-01-28T07:20:16.923Z,4.80
2019-01-28T07:22:45.621Z,4.70
2019-01-28T07:25:14.363Z,4.50
2019-01-28T07:27:42.843Z,4.50
2019-01-28T07:30:17.150Z,4.50
2019-01-28T07:32:45.736Z,4.50
2019-01-28T07:35:14.510Z,4.50
2019-01-28T07:37:42.950Z,4.50
2019-01-28T07:40:15.250Z,4.50
2019-01-28T07:42:43.656Z,4.40
2019-01-28T07:45:20.944Z,4.50
2019-01-28T07:47:49.385Z,4.40
2019-01-28T07:50:17.986Z,4.40
2019-01-28T07:52:46.407Z,4.40
2019-01-28T07:55:15.096Z,4.30
2019-01-28T07:57:43.497Z,4.30
2019-01-28T08:00:14.996Z,4.30
2019-01-28T08:02:43.447Z,4.40
2019-01-28T08:05:14.108Z,4.50
2019-01-28T08:07:42.532Z,4.40
2019-01-28T08:10:13.887Z,4.30
2019-01-28T08:12:42.293Z,4.30
2019-01-28T08:15:14.378Z,4.40
2019-01-28T08:17:45.642Z,4.40
2019-01-28T08:20:18.162Z,4.40
2019-01-28T08:22:47.044Z,4.40
2019-01-28T08:25:20.518Z,4.50
2019-01-28T08:27:49.444Z,4.50
2019-01-28T08:30:21.196Z,4.50
2019-01-28T08:32:49.746Z,4.50
2019-01-28T08:35:18.600Z,4.50
2019-01-28T08:37:47.274Z,4.40
2019-01-28T08:40:18.146Z,4.40
2019-01-28T08:42:46.548Z,4.50
2019-01-28T08:45:15.252Z,4.40
2019-01-28T08:47:43.652Z,4.40
2019-01-28T08:50:15.934Z,4.30
2019-01-28T08:52:44.408Z,4.40
2019-01-28T08:55:16.014Z,4.30
2019-01-28T08:57:44.429Z,4.40
2019-01-28T09:00:18.913Z,4.30
2019-01-28T09:02:47.593Z,4.30
2019-01-28T09:05:17.568Z,4.30
2019-01-28T09:07:45.981Z,4.30
2019-01-28T09:10:17.700Z,4.30
2019-01-28T09:12:47.206Z,4.30
2019-01-28T09:15:21.160Z,4.30
2019-01-28T09:17:49.955Z,4.30
2019-01-28T09:20:21.337Z,4.20
2019-01-28T09:22:51.278Z,4.40
2019-01-28T09:25:20.530Z,4.40
2019-01-28T09:27:48.988Z,4.40
2019-01-28T09:30:22.862Z,4.30
2019-01-28T09:32:51.335Z,4.30
2019-01-28T09:35:19.757Z,4.40
2019-01-28T09:37:49.504Z,4.40
2019-01-28T09:40:29.938Z,4.40
2019-01-28T09:43:00.650Z,4.50
2019-01-28T09:45:31.824Z,4.60
2019-01-28T09:48:00.463Z,4.60
2019-01-28T09:50:29.247Z,4.50
2019-01-28T09:52:59.732Z,4.60
2019-01-28T09:55:28.136Z,4.60
2019-01-28T09:57:57.093Z,4.60
2019-01-28T10:00:31.349Z,4.70
2019-01-28T10:02:59.796Z,4.70
2019-01-28T10:05:28.225Z,4.70
2019-01-28T10:07:57.111Z,4.70
2019-01-28T10:10:25.717Z,4.70
2019-01-28T10:12:56.276Z,4.70
2019-01-28T10:15:28.775Z,4.70
2019-01-28T10:17:56.684Z,4.70
2019-01-28T10:20:44.445Z,4.70
2019-01-28T10:23:11.541Z,4.70
2019-01-28T10:25:40.380Z,4.70
2019-01-28T10:28:09.053Z,4.70
2019-01-28T10:30:42.609Z,4.70
2019-01-28T10:33:11.875Z,4.70
2019-01-28T10:35:41.418Z,4.70
2019-01-28T10:38:10.171Z,4.70
2019-01-28T10:40:40.678Z,4.70
2019-01-28T10:43:10.003Z,4.70
2019-01-28T10:45:38.869Z,4.70
2019-01-28T10:48:08.325Z,4.80
2019-01-28T10:50:37.876Z,4.80
2019-01-28T10:53:07.818Z,4.80
2019-01-28T10:55:36.294Z,4.80
2019-01-28T10:58:05.437Z,4.80
2019-01-28T11:00:42.775Z,4.90
2019-01-28T11:03:13.037Z,4.90
2019-01-28T11:05:42.006Z,4.90
2019-01-28T11:08:10.519Z,4.90
2019-01-28T11:10:38.943Z,4.90
2019-01-28T11:13:07.988Z,4.80
2019-01-28T11:15:36.721Z,4.80
2019-01-28T11:18:09.851Z,4.80
2019-01-28T11:20:38.544Z,4.80
2019-01-28T11:23:07.015Z,4.90
2019-01-28T11:25:35.508Z,4.80
2019-01-28T11:28:04.341Z,4.90
2019-01-28T11:30:37.614Z,4.80
2019-01-28T11:33:06.200Z,4.90
2019-01-28T11:35:35.676Z,5.00
2019-01-28T11:38:06.026Z,5.00
2019-01-28T11:40:35.032Z,5.00
2019-01-28T11:43:04.863Z,5.00
2019-01-28T11:45:49.998Z,5.00
2019-01-28T11:48:18.443Z,5.10
2019-01-28T11:50:55.684Z,5.00
2019-01-28T11:53:17.652Z,5.00
2019-01-28T11:55:46.071Z,5.00
2019-01-28T11:58:14.747Z,5.00
2019-01-28T12:00:56.795Z,5.00
2019-01-28T12:03:25.282Z,5.00
2019-01-28T12:05:53.734Z,5.00
2019-01-28T12:08:22.384Z,5.00
2019-01-28T12:10:51.021Z,5.00
2019-01-28T12:13:19.549Z,5.00
2019-01-28T12:15:47.982Z,5.00
2019-01-28T12:18:16.545Z,4.90
2019-01-28T12:20:53.011Z,4.90
2019-01-28T12:23:15.229Z,5.00
2019-01-28T12:25:43.697Z,4.90
2019-01-28T12:28:12.104Z,5.00
2019-01-28T12:30:40.686Z,5.00
2019-01-28T12:33:09.109Z,5.00
2019-01-28T12:35:37.526Z,5.00
2019-01-28T12:38:05.967Z,5.00
2019-01-28T12:40:34.434Z,5.00
2019-01-28T12:43:03.121Z,5.00
2019-01-28T12:45:31.652Z,4.90
2019-01-28T12:48:00.057Z,4.90
2019-01-28T12:50:28.561Z,4.70
2019-01-28T12:52:56.971Z,4.70
2019-01-28T12:55:26.816Z,4.60
2019-01-28T12:57:55.645Z,4.70
2019-01-28T13:00:36.581Z,4.70
2019-01-28T13:03:06.429Z,4.70
2019-01-28T13:05:34.832Z,4.60
2019-01-28T13:08:03.262Z,4.60
2019-01-28T13:10:31.672Z,4.70
2019-01-28T13:13:00.076Z,4.70
2019-01-28T13:15:30.736Z,4.70
2019-01-28T13:18:07.873Z,4.80
2019-01-28T13:20:36.328Z,4.90
2019-01-28T13:23:05.229Z,5.00
2019-01-28T13:25:36.544Z,5.00
2019-01-28T13:28:24.294Z,5.00
2019-01-28T13:30:52.717Z,5.10
2019-01-28T13:33:21.352Z,5.00
2019-01-28T13:35:49.783Z,4.80
2019-01-28T13:38:18.249Z,4.80
2019-01-28T13:40:46.774Z,4.90
2019-01-28T13:43:15.197Z,4.80
2019-01-28T13:45:43.620Z,4.90
2019-01-28T13:48:12.981Z,4.80
2019-01-28T13:50:42.150Z,4.70
2019-01-28T13:53:11.112Z,4.40
2019-01-28T13:55:39.527Z,4.40
2019-01-28T13:58:08.219Z,4.30
2019-01-28T14:00:36.906Z,4.40
2019-01-28T14:03:06.457Z,4.40
2019-01-28T14:05:35.197Z,4.50
2019-01-28T14:08:03.686Z,4.50
2019-01-28T14:10:32.257Z,4.60
2019-01-28T14:13:00.676Z,4.60
2019-01-28T14:15:32.030Z,4.70
2019-01-28T14:18:00.706Z,4.60
2019-01-28T14:20:34.604Z,4.70
2019-01-28T14:23:03.108Z,4.60
2019-01-28T14:25:31.710Z,4.60
2019-01-28T14:28:00.492Z,4.60
2019-01-28T14:30:37.716Z,4.60
2019-01-28T14:33:07.300Z,4.70
2019-01-28T14:35:37.728Z,4.60
2019-01-28T14:38:08.074Z,4.60
2019-01-28T14:40:37.321Z,4.60
2019-01-28T14:43:06.015Z,4.50
2019-01-28T14:45:34.828Z,4.60
2019-01-28T14:48:03.274Z,4.60
2019-01-28T14:50:34.246Z,4.60
2019-01-28T14:53:02.670Z,4.70
2019-01-28T14:55:31.326Z,4.70
2019-01-28T14:58:00.284Z,4.70
2019-01-28T15:00:37.249Z,4.70
2019-01-28T15:03:06.045Z,4.60
2019-01-28T15:05:34.995Z,4.60
2019-01-28T15:08:03.990Z,4.60
2019-01-28T15:10:32.409Z,4.70
2019-01-28T15:13:00.835Z,4.70
2019-01-28T15:15:35.231Z,4.70
2019-01-28T15:18:04.201Z,4.70
2019-01-28T15:20:32.614Z,4.60
2019-01-28T15:23:01.032Z,4.50
2019-01-28T15:25:30.985Z,4.50
2019-01-28T15:27:59.424Z,4.50
2019-01-28T15:30:30.076Z,4.50
2019-01-28T15:32:58.526Z,4.50
2019-01-28T15:35:27.039Z,4.40
2019-01-28T15:37:55.449Z,4.50
2019-01-28T15:40:29.211Z,4.60
2019-01-28T15:42:57.903Z,4.60
2019-01-28T15:45:29.062Z,4.60
2019-01-28T15:47:57.487Z,4.60
2019-01-28T15:50:26.112Z,4.70
2019-01-28T15:52:54.569Z,4.70
2019-01-28T15:55:26.193Z,4.50
2019-01-28T15:57:54.592Z,4.30
2019-01-28T16:00:25.950Z,4.20
2019-01-28T16:02:54.356Z,4.10
2019-01-28T16:05:23.160Z,3.90
2019-01-28T16:07:51.566Z,3.90
2019-01-28T16:10:20.146Z,3.70
2019-01-28T16:12:49.817Z,3.70
2019-01-28T16:15:24.285Z,3.60
2019-01-28T16:17:52.792Z,3.70
2019-01-28T16:20:21.288Z,3.80
2019-01-28T16:22:49.839Z,3.80
2019-01-28T16:25:18.244Z,3.80
2019-01-28T16:27:46.769Z,3.70
2019-01-28T16:30:18.316Z,3.70
2019-01-28T16:32:47.005Z,3.70
2019-01-28T16:35:18.074Z,3.60
2019-01-28T16:37:47.321Z,3.70
2019-01-28T16:40:18.773Z,3.60
2019-01-28T16:42:47.920Z,3.60
2019-01-28T16:45:18.413Z,3.70
2019-01-28T16:47:47.088Z,3.60
2019-01-28T16:50:26.716Z,3.70
2019-01-28T16:52:51.620Z,3.70
2019-01-28T16:55:20.196Z,3.80
2019-01-28T16:57:49.064Z,3.80
2019-01-28T17:00:20.486Z,3.70
2019-01-28T17:02:48.900Z,3.70
2019-01-28T17:05:17.961Z,3.50
2019-01-28T17:07:46.645Z,3.30
2019-01-28T17:10:16.173Z,3.20
2019-01-28T17:12:44.591Z,3.10
2019-01-28T17:15:16.346Z,3.10
2019-01-28T17:17:44.768Z,3.00
2019-01-28T17:20:35.117Z,2.90
2019-01-28T17:22:57.950Z,3.00
2019-01-28T17:25:31.987Z,3.00
2019-01-28T17:28:00.392Z,2.80
2019-01-28T17:30:34.606Z,2.80
2019-01-28T17:33:03.088Z,2.80
2019-01-28T17:35:31.485Z,2.70
2019-01-28T17:38:00.060Z,2.70
2019-01-28T17:40:30.875Z,2.50
2019-01-28T17:42:59.838Z,3.20
2019-01-28T17:45:29.308Z,3.40
2019-01-28T17:47:58.180Z,3.70
2019-01-28T17:50:27.428Z,3.50
2019-01-28T17:52:55.834Z,3.60
2019-01-28T17:55:24.233Z,3.20
2019-01-28T17:57:52.653Z,3.00
2019-01-28T18:00:29.854Z,2.80
2019-01-28T18:02:58.525Z,2.50
2019-01-28T18:05:26.943Z,2.40
2019-01-28T18:07:55.632Z,2.20
2019-01-28T18:10:24.337Z,2.20
2019-01-28T18:12:54.005Z,2.30
2019-01-28T18:15:28.773Z,2.30
2019-01-28T18:17:57.209Z,2.20
2019-01-28T18:20:28.932Z,2.10
2019-01-28T18:22:57.373Z,2.30
2019-01-28T18:25:34.386Z,2.20
2019-01-28T18:28:02.985Z,2.10
2019-01-28T18:30:38.017Z,1.90
2019-01-28T18:33:06.816Z,1.90
2019-01-28T18:35:35.291Z,1.90
2019-01-28T18:38:04.404Z,1.90
2019-01-28T18:40:33.099Z,2.00
2019-01-28T18:43:01.604Z,2.10
2019-01-28T18:45:30.041Z,2.00
2019-01-28T18:47:58.463Z,1.90
2019-01-28T18:50:27.228Z,2.00
2019-01-28T18:52:55.629Z,1.70
2019-01-28T18:55:24.305Z,1.70
2019-01-28T18:57:52.736Z,1.70
2019-01-28T19:00:29.914Z,1.60
2019-01-28T19:02:58.675Z,1.60
2019-01-28T19:05:37.536Z,1.60
2019-01-28T19:08:10.977Z,1.60
2019-01-28T19:10:44.855Z,1.40
2019-01-28T19:13:20.742Z,1.40
2019-01-28T19:16:00.003Z,1.30
2019-01-28T19:18:46.456Z,1.40
2019-01-28T19:21:18.004Z,2.20
2019-01-28T19:23:46.412Z,2.40
2019-01-28T19:26:15.011Z,1.90
2019-01-28T19:28:43.438Z,1.90
2019-01-28T19:31:11.851Z,1.80
2019-01-28T19:33:40.284Z,1.60
2019-01-28T19:36:09.012Z,1.50
2019-01-28T19:38:37.419Z,1.50
2019-01-28T19:41:05.873Z,1.60
2019-01-28T19:43:34.306Z,1.60
2019-01-28T19:46:02.808Z,1.60
2019-01-28T19:48:31.230Z,1.40
2019-01-28T19:51:01.325Z,1.40
2019-01-28T19:53:29.739Z,1.40
2019-01-28T19:55:58.173Z,1.30
2019-01-28T19:58:26.596Z,1.30
2019-01-28T20:00:55.007Z,1.20
2019-01-28T20:03:23.442Z,1.20
2019-01-28T20:05:51.858Z,1.40
2019-01-28T20:08:20.289Z,1.40
2019-01-28T20:10:48.745Z,1.50
2019-01-28T20:13:17.136Z,1.40
2019-01-28T20:15:45.558Z,1.40
2019-01-28T20:18:15.153Z,1.30
2019-01-28T20:20:43.776Z,1.30
2019-01-28T20:23:12.188Z,1.40
2019-01-28T20:25:40.704Z,1.30
2019-01-28T20:28:09.164Z,1.40
2019-01-28T20:30:37.622Z,1.30
2019-01-28T20:33:06.128Z,1.30
2019-01-28T20:35:34.541Z,1.30
2019-01-28T20:38:03.168Z,1.30
2019-01-28T20:40:31.594Z,1.30
2019-01-28T20:43:00.028Z,1.20
2019-01-28T20:45:28.428Z,1.10
2019-01-28T20:47:56.878Z,1.20
2019-01-28T20:50:27.678Z,1.10
2019-01-28T20:52:56.111Z,1.20
2019-01-28T20:55:25.355Z,1.10
2019-01-28T20:57:54.851Z,1.10
2019-01-28T21:00:29.577Z,1.50
2019-01-28T21:02:58.111Z,2.20
2019-01-28T21:05:27.528Z,1.80
2019-01-28T21:07:56.362Z,1.40
2019-01-28T21:10:25.198Z,1.10
2019-01-28T21:12:55.223Z,1.10
2019-01-28T21:15:24.218Z,1.00
2019-01-28T21:17:52.801Z,0.90
2019-01-28T21:20:22.363Z,0.90
2019-01-28T21:22:51.404Z,1.10
2019-01-28T21:25:22.515Z,1.50
2019-01-28T21:27:52.193Z,1.50
2019-01-28T21:30:34.399Z,1.10
2019-01-28T21:33:02.838Z,1.00
2019-01-28T21:35:42.441Z,1.00
2019-01-28T21:38:21.627Z,1.10
2019-01-28T21:40:51.568Z,1.00
2019-01-28T21:43:20.033Z,1.00
2019-01-28T21:45:48.448Z,0.90
2019-01-28T21:48:16.897Z,0.70
2019-01-28T21:50:45.432Z,0.70
2019-01-28T21:53:13.875Z,0.80
2019-01-28T21:55:42.281Z,0.80
2019-01-28T21:58:10.717Z,0.80
2019-01-28T22:00:39.121Z,0.70
2019-01-28T22:03:07.528Z,0.70
2019-01-28T22:05:37.497Z,0.60
2019-01-28T22:08:08.502Z,0.70
2019-01-28T22:10:36.901Z,0.70
2019-01-28T22:13:05.962Z,0.80
2019-01-28T22:15:34.459Z,0.70
2019-01-28T22:18:05.749Z,0.80
2019-01-28T22:20:34.156Z,0.60
2019-01-28T22:23:02.602Z,0.60
2019-01-28T22:25:31.004Z,0.60
2019-01-28T22:27:59.416Z,-0.30
2019-01-28T22:30:27.861Z,0.50
2019-01-28T22:32:56.473Z,0.50
2019-01-28T22:35:24.888Z,0.60
2019-01-28T22:37:53.327Z,0.70
2019-01-28T22:40:21.750Z,0.70
2019-01-28T22:42:50.148Z,0.60
2019-01-28T22:45:20.110Z,0.60
2019-01-28T22:47:48.577Z,0.60
2019-01-28T22:50:18.628Z,0.60
2019-01-28T22:52:47.030Z,0.50
2019-01-28T22:55:18.250Z,0.50
2019-01-28T22:57:46.691Z,0.50
2019-01-28T23:00:28.405Z,0.40
2019-01-28T23:02:56.805Z,0.50
2019-01-28T23:05:25.361Z,0.50
2019-01-28T23:07:53.889Z,0.50
2019-01-28T23:10:22.302Z,0.50
2019-01-28T23:12:50.720Z,0.50
2019-01-28T23:15:19.124Z,0.40
2019-01-28T23:17:47.527Z,0.50
2019-01-28T23:20:16.097Z,0.50
2019-01-28T23:22:44.523Z,0.40
2019-01-28T23:25:13.285Z,0.50
2019-01-28T23:27:41.699Z,0.40
2019-01-28T23:30:14.179Z,0.50
2019-01-28T23:32:42.598Z,0.50
2019-01-28T23:35:11.366Z,0.60
2019-01-28T23:37:39.770Z,0.40
2019-01-28T23:40:09.201Z,0.50
2019-01-28T23:42:37.643Z,0.50
2019-01-28T23:45:09.336Z,0.50
2019-01-28T23:47:37.767Z,0.40
2019-01-28T23:50:08.885Z,0.50
2019-01-28T23:52:37.284Z,0.50
2019-01-28T23:55:07.841Z,0.50
2019-01-28T23:57:36.249Z,0.50
